Weather reports worldwide

Advertisment
Stabroek, Belgium (6438): temperature & dewpoint: 17.10.2020 23:00:00 - 23.10.2020 23:00:00 (CEST)Stabroek, Belgium (6438): wind speed & gusts: 17.10.2020 23:00:00 - 23.10.2020 23:00:00 (CEST)Stabroek, Belgium (6438): wind direction: 17.10.2020 23:00:00 - 23.10.2020 23:00:00 (CEST)Stabroek, Belgium (6438): reduced air pressure: 17.10.2020 23:00:00 - 23.10.2020 23:00:00 (CEST)Stabroek, Belgium (6438): sunshine duration: 17.10.2020 23:00:00 - 23.10.2020 23:00:00 (CEST)Stabroek, Belgium (6438): precipitation: 17.10.2020 23:00:00 - 23.10.2020 23:00:00 (CEST)
Date & Time tt [°C] td [°C] ff [km/h] ff [kn] fx [km/h] fx [kn] dd ppp [hPa] sd [min] rr [mm]
23.10.2020 23:00:00 14,3 11,8 19 10 34 18 SW 1011,9 0 0,0
23.10.2020 22:00:00 14,7 11,4 16 9 33 18 SW 1011,0 0 0,0
23.10.2020 21:00:00 14,6 11,3 15 8 34 18 SW 1010,7 0 0,0
23.10.2020 20:00:00 15,1 12,1 18 10 27 15 SSW 1010,6 0 0,0
23.10.2020 19:00:00 15,7 12,4 18 10 25 13 SSW 1010,3 0 0,0
23.10.2020 18:00:00 16,2 12,2 16 9 30 16 SSW 1010,0 32 0,0
23.10.2020 17:00:00 17,4 12,5 22 12 31 17 SW 1010,0 57 0,0
23.10.2020 16:00:00 17,1 13,8 18 10 27 15 S 1009,8 47 0,0
23.10.2020 15:00:00 16,5 14,1 18 10 28 15 S 1009,9 48 0,0
23.10.2020 14:00:00 14,5 13,5 14 8 26 14 SSW 1010,3 5 0,0
23.10.2020 13:00:00 13,6 13,6 17 9 23 12 SSW 1010,8 0 0,0
23.10.2020 12:00:00 13,7 13,7 10 5 18 10 SSW 1011,0 0 0,0
23.10.2020 11:00:00 12,2 12,2 7 4 18 10 SSE 1011,1 0 0,0
23.10.2020 10:00:00 10,9 10,9 4 2 9 5 E 1011,2 0 0,0
23.10.2020 09:00:00 10,4 10,4 4 2 9 5 ESE 1011,0 0 0,0
23.10.2020 08:00:00 9,7 9,7 4 2 10 6 E 1010,8 0 0,0
23.10.2020 07:00:00 7,2 7,2 6 3 9 5 SE 1011,2 0 0,0
23.10.2020 06:00:00 8,1 8,1 4 2 6 3 E 1011,4 0 0,0
23.10.2020 05:00:00 7,9 7,9 6 4 9 5 SE 1011,9 0 0,0
23.10.2020 04:00:00 7,9 7,9 4 2 6 3 E 1012,3 0 0,0
23.10.2020 03:00:00 10,0 10,0 4 2 6 3 N 1012,6 0 0,0
23.10.2020 02:00:00 10,7 10,4 4 2 15 8 N 1012,7 0 0,0
23.10.2020 01:00:00 12,6 11,0 9 5 16 9 SSW 1012,7 0 0,0
23.10.2020 00:00:00 13,4 11,3 12 7 27 15 SW 1012,7 0 0,0
22.10.2020 23:00:00 13,5 11,4 12 6 19 10 SW 1012,7 0 0,0
22.10.2020 22:00:00 13,4 12,3 10 5 17 9 SW 1012,4 0 0,0
22.10.2020 21:00:00 13,3 12,2 10 5 16 9 SW 1012,0 0 0,0
22.10.2020 20:00:00 14,3 12,5 7 4 16 9 SW 1011,9 0 0,0
22.10.2020 19:00:00 15,3 12,1 10 6 23 12 SSW 1011,3 25 0,0
22.10.2020 18:00:00 16,8 12,1 16 8 29 15 SW 1011,2 35 0,0
22.10.2020 17:00:00 16,7 10,8 16 8 29 15 SSW 1011,0 19 0,0
22.10.2020 16:00:00 16,8 11,9 15 8 30 16 SW 1010,9 12 0,0
22.10.2020 15:00:00 16,4 12,1 18 10 35 19 SW 1011,4 11 0,1
22.10.2020 14:00:00 16,6 12,6 22 12 32 17 SSW 1011,5 9 0,0
22.10.2020 13:00:00 16,1 11,5 23 12 34 18 SSW 1011,7 21 0,0
22.10.2020 12:00:00 15,8 11,9 23 12 35 19 SSW 1011,8 38 0,0
22.10.2020 11:00:00 14,7 11,8 23 12 34 19 SSW 1011,8 54 0,0
22.10.2020 10:00:00 13,8 11,6 18 10 33 18 SSW 1011,3 55 0,0
22.10.2020 09:00:00 13,0 11,6 21 12 31 17 SSW 1010,8 0 0,0
22.10.2020 08:00:00 13,1 11,7 18 10 25 14 S 1009,8 0 0,0
22.10.2020 07:00:00 13,6 12,1 19 10 29 16 SSW 1009,7 0 0,0
22.10.2020 06:00:00 13,8 12,4 16 9 37 20 SSW 1009,3 0 0,0
22.10.2020 05:00:00 14,5 12,5 25 13 37 20 SSW 1009,5 0 0,0
22.10.2020 04:00:00 14,8 12,8 21 11 29 15 SSW 1009,0 0 0,0
22.10.2020 03:00:00 15,2 13,5 16 9 27 15 SSW 1008,7 0 0,0
22.10.2020 02:00:00 15,8 13,8 22 12 35 19 SSW 1008,3 0 0,0
22.10.2020 01:00:00 16,0 14,2 18 10 36 19 SW 1007,6 0 0,0
22.10.2020 00:00:00 16,5 14,0 16 9 33 18 SW 1007,3 0 0,0
21.10.2020 23:00:00 17,0 13,4 23 12 55 30 SW 1006,5 0 0,0
21.10.2020 22:00:00 17,5 12,8 32 17 53 29 SW 1005,5 0 0,0
21.10.2020 21:00:00 18,1 12,8 27 14 47 25 SW 1004,1 0 0,0
21.10.2020 20:00:00 19,1 12,8 32 18 66 36 SW 1002,6 0 0,0
21.10.2020 19:00:00 19,6 13,1 43 23 67 36 SSW 1001,3 0 0,0
21.10.2020 18:00:00 20,0 13,2 37 20 69 37 SSW 1000,1 2 0,0
21.10.2020 17:00:00 20,6 13,2 42 23 72 39 SSW 999,1 13 0,0
21.10.2020 16:00:00 20,4 13,6 44 24 66 36 SSW 998,2 4 0,0
21.10.2020 15:00:00 20,2 13,6 42 23 78 42 S 997,8 25 0,0
21.10.2020 14:00:00 20,3 13,3 47 25 71 39 S 997,7 53 0,0
21.10.2020 13:00:00 17,4 13,2 29 16 48 26 SSE 998,2 17 0,0
21.10.2020 12:00:00 14,0 12,6 26 14 37 20 SE 999,2 0 0,0
21.10.2020 11:00:00 13,4 13,1 17 9 37 20 SE 1000,4 0 1,3
21.10.2020 10:00:00 12,9 12,8 18 10 27 14 SSE 1001,6 0 2,1
21.10.2020 09:00:00 12,7 12,7 18 10 29 15 SE 1001,7 0 2,1
21.10.2020 08:00:00 12,9 12,9 11 6 27 15 SE 1002,0 0 2,4
21.10.2020 07:00:00 13,1 13,1 13 7 27 15 SSE 1002,9 0 0,7
21.10.2020 06:00:00 13,4 13,3 15 8 21 11 SE 1003,1 0 0,6
21.10.2020 05:00:00 13,6 13,4 11 6 16 9 SE 1003,6 0 0,3
21.10.2020 04:00:00 13,9 13,4 10 5 21 11 SE 1004,4 0 0,2
21.10.2020 03:00:00 14,2 13,3 14 7 23 12 SSE 1005,0 0 0,0
21.10.2020 02:00:00 14,4 13,3 14 8 24 13 SSE 1005,5 0 0,0
21.10.2020 01:00:00 14,6 13,5 15 8 26 14 SSE 1005,8 0 0,0
21.10.2020 00:00:00 14,8 13,6 18 10 36 19 S 1006,4 0 0,0
20.10.2020 23:00:00 14,7 13,6 18 10 31 17 SSE 1006,6 0 0,0
20.10.2020 22:00:00 14,8 13,8 21 11 37 20 S 1007,0 0 0,0
20.10.2020 21:00:00 14,9 13,7 21 11 37 20 S 1007,1 0 0,0
20.10.2020 20:00:00 15,2 13,4 22 12 31 17 S 1007,0 0 0,0
20.10.2020 19:00:00 15,2 13,1 22 12 32 18 S 1007,2 0 0,0
20.10.2020 18:00:00 15,2 12,7 21 11 33 18 S 1007,6 0 0,0
20.10.2020 17:00:00 15,6 11,9 18 10 30 16 S 1007,6 0 0,0
20.10.2020 16:00:00 15,5 11,8 20 11 30 16 S 1007,8 0 0,0
20.10.2020 15:00:00 15,6 11,9 23 12 37 20 S 1007,9 0 0,0
20.10.2020 14:00:00 14,8 11,4 22 12 37 20 S 1007,6 0 0,0
20.10.2020 13:00:00 14,1 10,9 22 12 33 18 S 1007,9 0 0,0
20.10.2020 12:00:00 13,4 10,3 18 10 31 17 S 1008,2 0 0,0
20.10.2020 11:00:00 13,0 9,4 21 12 31 17 S 1008,2 0 0,0
20.10.2020 10:00:00 12,4 8,8 16 9 24 13 S 1008,4 0 0,0
20.10.2020 09:00:00 10,1 7,9 8 5 14 7 SE 1008,0 0 0,0
20.10.2020 08:00:00 9,3 7,2 7 4 14 8 ESE 1007,6 0 0,0
20.10.2020 07:00:00 9,1 6,6 11 6 19 11 ESE 1007,7 0 0,0
20.10.2020 06:00:00 8,7 6,1 13 7 21 11 SE 1008,4 0 0,0
20.10.2020 05:00:00 8,9 6,0 15 8 22 12 SE 1009,3 0 0,0
20.10.2020 04:00:00 8,9 5,7 14 8 20 11 SE 1010,4 0 0,0
20.10.2020 03:00:00 8,9 5,7 13 7 23 12 ESE 1011,1 0 0,0
20.10.2020 02:00:00 9,1 5,9 14 8 21 12 ESE 1012,1 0 0,0
20.10.2020 01:00:00 9,6 6,0 16 8 22 12 ESE 1013,0 0 0,0
20.10.2020 00:00:00 9,5 6,6 14 7 18 10 ESE 1013,8 0 0,0
19.10.2020 23:00:00 10,0 7,0 12 7 19 11 SE 1014,9 0 0,0
19.10.2020 22:00:00 10,1 7,1 11 6 23 12 ESE 1015,5 0 0,0
19.10.2020 21:00:00 10,4 7,3 11 6 18 10 ESE 1016,5 0 0,0
19.10.2020 20:00:00 10,7 7,5 7 4 16 9 ESE 1017,3 0 0,0
19.10.2020 19:00:00 11,9 7,9 10 5 16 8 ESE 1017,2 0 0,0
19.10.2020 18:00:00 13,1 7,9 10 6 21 11 SE 1017,6 37 0,0
19.10.2020 17:00:00 13,9 7,6 14 8 24 13 S 1018,5 53 0,0
19.10.2020 16:00:00 14,3 7,6 16 8 25 14 S 1019,2 20 0,0
19.10.2020 15:00:00 13,6 8,3 15 8 24 13 S 1019,9 15 0,0
19.10.2020 14:00:00 13,1 7,9 14 8 22 12 S 1020,9 42 0,0
19.10.2020 13:00:00 12,7 8,7 15 8 20 11 S 1021,5 59 0,0
19.10.2020 12:00:00 11,3 8,5 14 7 20 11 SSE 1021,9 0 0,0
19.10.2020 11:00:00 10,3 8,6 13 7 17 9 SSE 1022,5 0 0,0
19.10.2020 10:00:00 9,4 9,0 7 4 15 8 SSE 1022,5 0 0,0
19.10.2020 09:00:00 8,7 8,7 4 2 10 5 E 1022,2 0 0,0
19.10.2020 08:00:00 8,6 8,6 4 2 9 5 ESE 1022,2 0 0,0
19.10.2020 07:00:00 8,5 8,5 6 3 9 5 SE 1022,3 0 0,0
19.10.2020 06:00:00 8,7 8,7 4 2 6 3 NE 1022,6 0 0,0
19.10.2020 05:00:00 9,1 8,7 4 2 13 7 NNE 1022,8 0 0,0
19.10.2020 04:00:00 9,4 8,3 9 5 16 9 W 1023,4 0 0,0
19.10.2020 03:00:00 8,9 8,8 6 3 9 5 SW 1023,4 0 0,0
19.10.2020 02:00:00 9,0 8,8 7 4 16 9 SW 1023,3 0 0,0
19.10.2020 01:00:00 9,8 9,2 13 7 17 9 WSW 1023,6 0 0,0
19.10.2020 00:00:00 10,2 9,2 11 6 23 12 WSW 1023,4 0 0,0
18.10.2020 23:00:00 9,5 9,1 6 3 9 5 SSW 1023,4 0 0,0
18.10.2020 22:00:00 9,7 9,7 0 0 6 4 N 1023,3 0 0,0
18.10.2020 21:00:00 9,9 9,6 5 3 13 7 SSE 1023,2 0 0,0
18.10.2020 20:00:00 10,3 10,0 7 4 11 6 NNW 1023,4 0 0,0
18.10.2020 19:00:00 10,9 9,7 8 5 13 7 NNW 1022,9 0 0,0
18.10.2020 18:00:00 11,0 9,6 8 5 18 10 NNW 1022,5 6 0,0
18.10.2020 17:00:00 12,1 9,5 13 7 19 11 NW 1022,6 4 0,0
18.10.2020 16:00:00 12,9 9,2 11 6 25 13 W 1022,6 35 0,0
18.10.2020 15:00:00 12,3 9,7 13 7 27 15 WNW 1022,7 5 0,0
18.10.2020 14:00:00 12,6 10,6 11 6 16 8 WSW 1023,1 3 0,0
18.10.2020 13:00:00 11,6 10,2 8 4 11 6 WSW 1023,6 0 0,0
18.10.2020 12:00:00 10,9 10,0 6 3 11 6 SSW 1023,5 0 0,0
18.10.2020 11:00:00 10,1 9,6 5 3 12 7 SSW 1023,4 0 0,0
18.10.2020 10:00:00 9,3 9,2 8 5 10 5 S 1023,1 0 0,0
18.10.2020 09:00:00 9,0 8,8 4 2 20 11 NE 1022,7 0 0,0
18.10.2020 08:00:00 8,9 8,6 11 6 16 9 S 1022,1 0 0,0
18.10.2020 07:00:00 8,6 8,5 4 2 7 4 SSE 1022,2 0 0,0
18.10.2020 06:00:00 8,7 8,5 5 3 9 5 S 1022,3 0 0,0
18.10.2020 05:00:00 8,2 8,1 4 2 4 2 SE 1022,5 0 0,0
18.10.2020 04:00:00 7,9 7,9 4 2 7 4 S 1022,5 0 0,0
18.10.2020 03:00:00 8,0 8,0 6 3 9 5 SW 1022,5 0 0,0
18.10.2020 02:00:00 8,1 8,1 4 2 4 2 SE 1022,7 0 0,0
18.10.2020 01:00:00 8,0 8,0 0 0 4 2 N 1022,5 0 0,0
18.10.2020 00:00:00 8,0 8,0 0 0 6 3 N 1022,4 0 0,0
17.10.2020 23:00:00 8,3 8,3 4 2 6 3 E 1022,3 0 0,0

tt = temperature
td = dewpoint
ff = wind speed
fx = gusts
dd = wind direction
ppp = reduced air pressure
sd = sunshine duration
rr = precipitation

Next stations